sensor_id;sensor_type;location;lat;lon;timestamp;P1;durP1;ratioP1;P2;durP2;ratioP2
25123;SDS011;13104;51.030;4.686;2022-08-30T00:00:48;9.85;;;5.25;;
25123;SDS011;13104;51.030;4.686;2022-08-30T00:03:37;12.02;;;5.32;;
25123;SDS011;13104;51.030;4.686;2022-08-30T00:06:09;8.77;;;4.57;;
25123;SDS011;13104;51.030;4.686;2022-08-30T00:08:36;11.95;;;5.25;;
25123;SDS011;13104;51.030;4.686;2022-08-30T00:11:04;10.95;;;5.53;;
25123;SDS011;13104;51.030;4.686;2022-08-30T00:13:30;12.10;;;5.32;;
25123;SDS011;13104;51.030;4.686;2022-08-30T00:15:56;12.50;;;5.10;;
25123;SDS011;13104;51.030;4.686;2022-08-30T00:18:22;11.75;;;5.53;;
25123;SDS011;13104;51.030;4.686;2022-08-30T00:20:49;9.15;;;5.70;;
25123;SDS011;13104;51.030;4.686;2022-08-30T00:23:16;15.63;;;5.85;;
25123;SDS011;13104;51.030;4.686;2022-08-30T00:25:42;17.13;;;6.22;;
25123;SDS011;13104;51.030;4.686;2022-08-30T00:28:09;8.85;;;5.25;;
25123;SDS011;13104;51.030;4.686;2022-08-30T00:30:35;10.85;;;5.45;;
25123;SDS011;13104;51.030;4.686;2022-08-30T00:33:01;9.82;;;5.28;;
25123;SDS011;13104;51.030;4.686;2022-08-30T00:35:28;15.60;;;6.82;;
25123;SDS011;13104;51.030;4.686;2022-08-30T00:37:54;19.27;;;6.43;;
25123;SDS011;13104;51.030;4.686;2022-08-30T00:40:20;10.40;;;5.47;;
25123;SDS011;13104;51.030;4.686;2022-08-30T00:42:47;15.93;;;6.32;;
25123;SDS011;13104;51.030;4.686;2022-08-30T00:45:15;14.65;;;5.60;;
25123;SDS011;13104;51.030;4.686;2022-08-30T00:47:42;15.32;;;5.72;;
25123;SDS011;13104;51.030;4.686;2022-08-30T00:50:08;15.25;;;5.75;;
25123;SDS011;13104;51.030;4.686;2022-08-30T00:52:35;13.57;;;5.45;;
25123;SDS011;13104;51.030;4.686;2022-08-30T00:55:02;11.32;;;5.63;;
25123;SDS011;13104;51.030;4.686;2022-08-30T00:57:29;14.43;;;5.95;;
25123;SDS011;13104;51.030;4.686;2022-08-30T00:59:55;13.23;;;5.82;;
25123;SDS011;13104;51.030;4.686;2022-08-30T01:02:22;12.02;;;5.53;;
25123;SDS011;13104;51.030;4.686;2022-08-30T01:04:48;11.60;;;5.55;;
25123;SDS011;13104;51.030;4.686;2022-08-30T01:07:15;10.63;;;5.53;;
25123;SDS011;13104;51.030;4.686;2022-08-30T01:09:42;9.90;;;5.40;;
25123;SDS011;13104;51.030;4.686;2022-08-30T01:12:08;13.43;;;5.93;;
25123;SDS011;13104;51.030;4.686;2022-08-30T01:14:34;14.13;;;5.57;;
25123;SDS011;13104;51.030;4.686;2022-08-30T01:17:00;10.98;;;6.28;;
25123;SDS011;13104;51.030;4.686;2022-08-30T01:19:41;17.33;;;5.47;;
25123;SDS011;13104;51.030;4.686;2022-08-30T01:24:55;14.20;;;5.50;;
25123;SDS011;13104;51.030;4.686;2022-08-30T01:27:22;13.90;;;5.95;;
25123;SDS011;13104;51.030;4.686;2022-08-30T01:29:49;14.68;;;5.72;;
25123;SDS011;13104;51.030;4.686;2022-08-30T01:32:20;13.30;;;6.18;;
25123;SDS011;13104;51.030;4.686;2022-08-30T01:34:46;13.25;;;6.10;;
25123;SDS011;13104;51.030;4.686;2022-08-30T01:37:21;14.43;;;5.85;;
25123;SDS011;13104;51.030;4.686;2022-08-30T01:39:48;18.75;;;6.82;;
25123;SDS011;13104;51.030;4.686;2022-08-30T01:42:14;11.18;;;6.00;;
25123;SDS011;13104;51.030;4.686;2022-08-30T01:44:42;12.20;;;5.82;;
25123;SDS011;13104;51.030;4.686;2022-08-30T01:47:09;13.60;;;6.15;;
25123;SDS011;13104;51.030;4.686;2022-08-30T01:49:35;18.13;;;6.35;;
25123;SDS011;13104;51.030;4.686;2022-08-30T01:52:02;12.95;;;6.03;;
25123;SDS011;13104;51.030;4.686;2022-08-30T01:54:29;15.68;;;6.78;;
25123;SDS011;13104;51.030;4.686;2022-08-30T01:56:55;17.95;;;6.75;;
25123;SDS011;13104;51.030;4.686;2022-08-30T01:59:22;12.00;;;6.20;;
25123;SDS011;13104;51.030;4.686;2022-08-30T02:01:48;10.88;;;6.00;;
25123;SDS011;13104;51.030;4.686;2022-08-30T02:04:14;12.65;;;6.55;;
25123;SDS011;13104;51.030;4.686;2022-08-30T02:06:40;14.48;;;6.03;;
25123;SDS011;13104;51.030;4.686;2022-08-30T02:09:08;12.70;;;5.88;;
25123;SDS011;13104;51.030;4.686;2022-08-30T02:11:34;18.25;;;6.40;;
25123;SDS011;13104;51.030;4.686;2022-08-30T02:14:00;13.98;;;6.10;;
25123;SDS011;13104;51.030;4.686;2022-08-30T02:16:26;15.70;;;6.60;;
25123;SDS011;13104;51.030;4.686;2022-08-30T02:18:53;12.90;;;5.63;;
25123;SDS011;13104;51.030;4.686;2022-08-30T02:21:21;12.05;;;6.57;;
25123;SDS011;13104;51.030;4.686;2022-08-30T02:23:47;15.18;;;6.50;;
25123;SDS011;13104;51.030;4.686;2022-08-30T02:26:13;10.10;;;6.13;;
25123;SDS011;13104;51.030;4.686;2022-08-30T02:28:40;15.63;;;7.15;;
25123;SDS011;13104;51.030;4.686;2022-08-30T02:31:06;13.13;;;6.60;;
25123;SDS011;13104;51.030;4.686;2022-08-30T02:33:32;15.00;;;6.47;;
25123;SDS011;13104;51.030;4.686;2022-08-30T02:35:58;15.77;;;6.65;;
25123;SDS011;13104;51.030;4.686;2022-08-30T02:38:24;10.93;;;6.95;;
25123;SDS011;13104;51.030;4.686;2022-08-30T02:40:51;14.15;;;7.05;;
25123;SDS011;13104;51.030;4.686;2022-08-30T02:43:17;15.20;;;6.47;;
25123;SDS011;13104;51.030;4.686;2022-08-30T02:45:43;19.60;;;7.72;;
25123;SDS011;13104;51.030;4.686;2022-08-30T02:48:09;11.88;;;7.13;;
25123;SDS011;13104;51.030;4.686;2022-08-30T02:50:40;15.18;;;7.25;;
25123;SDS011;13104;51.030;4.686;2022-08-30T02:53:06;14.82;;;7.05;;
25123;SDS011;13104;51.030;4.686;2022-08-30T02:55:32;11.23;;;7.00;;
25123;SDS011;13104;51.030;4.686;2022-08-30T02:57:58;11.40;;;6.82;;
25123;SDS011;13104;51.030;4.686;2022-08-30T03:00:24;17.10;;;7.60;;
25123;SDS011;13104;51.030;4.686;2022-08-30T03:02:50;15.13;;;7.43;;
25123;SDS011;13104;51.030;4.686;2022-08-30T03:05:17;14.43;;;6.65;;
25123;SDS011;13104;51.030;4.686;2022-08-30T03:07:43;17.48;;;7.32;;
25123;SDS011;13104;51.030;4.686;2022-08-30T03:10:11;11.52;;;6.93;;
25123;SDS011;13104;51.030;4.686;2022-08-30T03:12:37;15.32;;;6.70;;
25123;SDS011;13104;51.030;4.686;2022-08-30T03:15:05;17.10;;;7.35;;
25123;SDS011;13104;51.030;4.686;2022-08-30T03:17:32;15.80;;;7.78;;
25123;SDS011;13104;51.030;4.686;2022-08-30T03:19:58;12.25;;;7.32;;
25123;SDS011;13104;51.030;4.686;2022-08-30T03:22:26;13.52;;;7.38;;
25123;SDS011;13104;51.030;4.686;2022-08-30T03:24:53;10.15;;;7.35;;
25123;SDS011;13104;51.030;4.686;2022-08-30T03:27:23;16.95;;;8.00;;
25123;SDS011;13104;51.030;4.686;2022-08-30T03:29:50;18.38;;;7.80;;
25123;SDS011;13104;51.030;4.686;2022-08-30T03:32:16;14.80;;;7.53;;
25123;SDS011;13104;51.030;4.686;2022-08-30T03:34:50;15.07;;;8.25;;
25123;SDS011;13104;51.030;4.686;2022-08-30T03:37:16;15.10;;;7.68;;
25123;SDS011;13104;51.030;4.686;2022-08-30T03:39:44;20.48;;;8.23;;
25123;SDS011;13104;51.030;4.686;2022-08-30T03:42:10;13.32;;;7.47;;
25123;SDS011;13104;51.030;4.686;2022-08-30T03:44:36;20.17;;;8.77;;
25123;SDS011;13104;51.030;4.686;2022-08-30T03:47:02;18.00;;;8.15;;
25123;SDS011;13104;51.030;4.686;2022-08-30T03:49:29;15.20;;;7.93;;
25123;SDS011;13104;51.030;4.686;2022-08-30T03:51:55;18.52;;;8.93;;
25123;SDS011;13104;51.030;4.686;2022-08-30T03:54:22;15.82;;;8.90;;
25123;SDS011;13104;51.030;4.686;2022-08-30T03:56:48;16.25;;;8.10;;
25123;SDS011;13104;51.030;4.686;2022-08-30T03:59:14;19.45;;;8.05;;
25123;SDS011;13104;51.030;4.686;2022-08-30T04:01:40;15.50;;;7.97;;
25123;SDS011;13104;51.030;4.686;2022-08-30T04:04:07;17.50;;;7.90;;
25123;SDS011;13104;51.030;4.686;2022-08-30T04:06:34;20.48;;;8.38;;
25123;SDS011;13104;51.030;4.686;2022-08-30T04:09:00;14.93;;;8.32;;
25123;SDS011;13104;51.030;4.686;2022-08-30T04:11:26;13.95;;;7.53;;
25123;SDS011;13104;51.030;4.686;2022-08-30T04:13:52;12.05;;;7.65;;
25123;SDS011;13104;51.030;4.686;2022-08-30T04:16:20;13.05;;;7.90;;
25123;SDS011;13104;51.030;4.686;2022-08-30T04:18:46;12.10;;;7.85;;
25123;SDS011;13104;51.030;4.686;2022-08-30T04:21:12;13.43;;;7.70;;
25123;SDS011;13104;51.030;4.686;2022-08-30T04:23:38;16.13;;;7.85;;
25123;SDS011;13104;51.030;4.686;2022-08-30T04:26:04;14.82;;;7.53;;
25123;SDS011;13104;51.030;4.686;2022-08-30T04:28:30;13.63;;;7.70;;
25123;SDS011;13104;51.030;4.686;2022-08-30T04:30:59;16.35;;;7.90;;
25123;SDS011;13104;51.030;4.686;2022-08-30T04:33:27;17.50;;;7.82;;
25123;SDS011;13104;51.030;4.686;2022-08-30T04:35:53;17.25;;;7.97;;
25123;SDS011;13104;51.030;4.686;2022-08-30T04:38:19;15.05;;;8.23;;
25123;SDS011;13104;51.030;4.686;2022-08-30T04:40:46;13.68;;;7.80;;
25123;SDS011;13104;51.030;4.686;2022-08-30T04:43:13;17.33;;;8.25;;
25123;SDS011;13104;51.030;4.686;2022-08-30T04:45:40;13.00;;;8.05;;
25123;SDS011;13104;51.030;4.686;2022-08-30T04:48:06;12.02;;;7.72;;
25123;SDS011;13104;51.030;4.686;2022-08-30T04:50:33;16.65;;;8.13;;
25123;SDS011;13104;51.030;4.686;2022-08-30T04:52:59;10.75;;;7.75;;
25123;SDS011;13104;51.030;4.686;2022-08-30T04:55:25;14.32;;;8.98;;
25123;SDS011;13104;51.030;4.686;2022-08-30T04:57:52;11.50;;;7.85;;
25123;SDS011;13104;51.030;4.686;2022-08-30T05:00:18;17.95;;;8.23;;
25123;SDS011;13104;51.030;4.686;2022-08-30T05:02:45;16.23;;;8.82;;
25123;SDS011;13104;51.030;4.686;2022-08-30T05:05:11;15.98;;;9.00;;
25123;SDS011;13104;51.030;4.686;2022-08-30T05:07:56;18.90;;;9.07;;
25123;SDS011;13104;51.030;4.686;2022-08-30T05:10:22;15.90;;;8.35;;
25123;SDS011;13104;51.030;4.686;2022-08-30T05:12:49;14.38;;;8.18;;
25123;SDS011;13104;51.030;4.686;2022-08-30T05:15:15;15.50;;;8.90;;
25123;SDS011;13104;51.030;4.686;2022-08-30T05:17:41;17.23;;;8.82;;
25123;SDS011;13104;51.030;4.686;2022-08-30T05:20:08;20.58;;;9.48;;
25123;SDS011;13104;51.030;4.686;2022-08-30T05:22:35;13.13;;;8.40;;
25123;SDS011;13104;51.030;4.686;2022-08-30T05:25:02;15.55;;;8.65;;
25123;SDS011;13104;51.030;4.686;2022-08-30T05:27:29;12.68;;;7.90;;
25123;SDS011;13104;51.030;4.686;2022-08-30T05:29:55;13.73;;;9.07;;
25123;SDS011;13104;51.030;4.686;2022-08-30T05:32:21;17.83;;;9.18;;
25123;SDS011;13104;51.030;4.686;2022-08-30T05:34:47;10.85;;;8.30;;
25123;SDS011;13104;51.030;4.686;2022-08-30T05:37:14;14.27;;;8.80;;
25123;SDS011;13104;51.030;4.686;2022-08-30T05:39:40;18.75;;;9.18;;
25123;SDS011;13104;51.030;4.686;2022-08-30T05:42:06;15.43;;;9.60;;
25123;SDS011;13104;51.030;4.686;2022-08-30T05:44:32;16.15;;;9.35;;
25123;SDS011;13104;51.030;4.686;2022-08-30T05:46:58;14.15;;;8.93;;
25123;SDS011;13104;51.030;4.686;2022-08-30T05:49:24;13.93;;;9.15;;
25123;SDS011;13104;51.030;4.686;2022-08-30T05:51:50;16.27;;;9.40;;
25123;SDS011;13104;51.030;4.686;2022-08-30T05:54:16;11.25;;;8.73;;
25123;SDS011;13104;51.030;4.686;2022-08-30T05:56:43;17.25;;;9.70;;
25123;SDS011;13104;51.030;4.686;2022-08-30T05:59:10;16.65;;;8.80;;
25123;SDS011;13104;51.030;4.686;2022-08-30T06:01:38;12.60;;;9.25;;
25123;SDS011;13104;51.030;4.686;2022-08-30T06:04:04;14.02;;;9.43;;
25123;SDS011;13104;51.030;4.686;2022-08-30T06:06:32;13.85;;;9.57;;
25123;SDS011;13104;51.030;4.686;2022-08-30T06:08:59;15.48;;;10.70;;
25123;SDS011;13104;51.030;4.686;2022-08-30T06:11:26;15.13;;;9.05;;
25123;SDS011;13104;51.030;4.686;2022-08-30T06:13:52;18.00;;;10.73;;
25123;SDS011;13104;51.030;4.686;2022-08-30T06:16:19;13.50;;;9.55;;
25123;SDS011;13104;51.030;4.686;2022-08-30T06:18:46;14.35;;;9.88;;
25123;SDS011;13104;51.030;4.686;2022-08-30T06:21:20;17.58;;;10.43;;
25123;SDS011;13104;51.030;4.686;2022-08-30T06:23:46;11.73;;;9.43;;
25123;SDS011;13104;51.030;4.686;2022-08-30T06:26:12;14.07;;;9.90;;
25123;SDS011;13104;51.030;4.686;2022-08-30T06:28:39;15.30;;;10.15;;
25123;SDS011;13104;51.030;4.686;2022-08-30T06:31:09;16.52;;;10.07;;
25123;SDS011;13104;51.030;4.686;2022-08-30T06:33:36;15.18;;;10.15;;
25123;SDS011;13104;51.030;4.686;2022-08-30T06:36:03;19.63;;;10.05;;
25123;SDS011;13104;51.030;4.686;2022-08-30T06:38:29;18.50;;;10.32;;
25123;SDS011;13104;51.030;4.686;2022-08-30T06:40:55;15.65;;;9.65;;
25123;SDS011;13104;51.030;4.686;2022-08-30T06:43:21;12.98;;;9.60;;
25123;SDS011;13104;51.030;4.686;2022-08-30T06:45:47;19.45;;;11.02;;
25123;SDS011;13104;51.030;4.686;2022-08-30T06:48:13;16.80;;;9.43;;
25123;SDS011;13104;51.030;4.686;2022-08-30T06:50:39;13.82;;;8.70;;
25123;SDS011;13104;51.030;4.686;2022-08-30T06:53:06;16.70;;;9.25;;
25123;SDS011;13104;51.030;4.686;2022-08-30T06:55:32;13.40;;;10.30;;
25123;SDS011;13104;51.030;4.686;2022-08-30T06:57:59;13.45;;;9.65;;
25123;SDS011;13104;51.030;4.686;2022-08-30T07:00:26;13.52;;;9.70;;
25123;SDS011;13104;51.030;4.686;2022-08-30T07:02:52;14.13;;;9.55;;
25123;SDS011;13104;51.030;4.686;2022-08-30T07:05:19;15.75;;;9.50;;
25123;SDS011;13104;51.030;4.686;2022-08-30T07:07:48;12.90;;;8.77;;
25123;SDS011;13104;51.030;4.686;2022-08-30T07:10:15;18.95;;;9.85;;
25123;SDS011;13104;51.030;4.686;2022-08-30T07:12:41;15.70;;;9.45;;
25123;SDS011;13104;51.030;4.686;2022-08-30T07:15:07;12.73;;;8.88;;
25123;SDS011;13104;51.030;4.686;2022-08-30T07:17:34;17.35;;;9.43;;
25123;SDS011;13104;51.030;4.686;2022-08-30T07:20:19;12.70;;;8.85;;
25123;SDS011;13104;51.030;4.686;2022-08-30T07:22:45;14.35;;;9.38;;
25123;SDS011;13104;51.030;4.686;2022-08-30T07:25:12;14.25;;;9.20;;
25123;SDS011;13104;51.030;4.686;2022-08-30T07:27:38;16.00;;;8.88;;
25123;SDS011;13104;51.030;4.686;2022-08-30T07:30:05;14.73;;;10.07;;
25123;SDS011;13104;51.030;4.686;2022-08-30T07:32:31;13.43;;;9.50;;
25123;SDS011;13104;51.030;4.686;2022-08-30T07:34:57;17.75;;;8.57;;
25123;SDS011;13104;51.030;4.686;2022-08-30T07:37:24;16.42;;;8.95;;
25123;SDS011;13104;51.030;4.686;2022-08-30T07:39:50;20.23;;;8.95;;
25123;SDS011;13104;51.030;4.686;2022-08-30T07:42:16;17.17;;;9.55;;
25123;SDS011;13104;51.030;4.686;2022-08-30T07:44:42;12.55;;;8.27;;
25123;SDS011;13104;51.030;4.686;2022-08-30T07:47:08;12.20;;;8.07;;
25123;SDS011;13104;51.030;4.686;2022-08-30T07:49:35;13.95;;;8.32;;
25123;SDS011;13104;51.030;4.686;2022-08-30T07:52:01;14.88;;;8.52;;
25123;SDS011;13104;51.030;4.686;2022-08-30T07:54:27;13.48;;;7.13;;
25123;SDS011;13104;51.030;4.686;2022-08-30T07:56:53;12.85;;;9.13;;
25123;SDS011;13104;51.030;4.686;2022-08-30T07:59:20;11.70;;;7.43;;
25123;SDS011;13104;51.030;4.686;2022-08-30T08:01:46;15.00;;;9.05;;
25123;SDS011;13104;51.030;4.686;2022-08-30T08:04:12;12.18;;;7.45;;
25123;SDS011;13104;51.030;4.686;2022-08-30T08:06:39;11.63;;;7.65;;
25123;SDS011;13104;51.030;4.686;2022-08-30T08:09:05;14.45;;;8.20;;
25123;SDS011;13104;51.030;4.686;2022-08-30T08:11:32;10.88;;;7.80;;
25123;SDS011;13104;51.030;4.686;2022-08-30T08:13:58;14.90;;;8.70;;
25123;SDS011;13104;51.030;4.686;2022-08-30T08:16:28;12.75;;;8.40;;
25123;SDS011;13104;51.030;4.686;2022-08-30T08:18:54;12.80;;;7.00;;
25123;SDS011;13104;51.030;4.686;2022-08-30T08:21:21;13.70;;;8.00;;
25123;SDS011;13104;51.030;4.686;2022-08-30T08:23:47;13.45;;;7.93;;
25123;SDS011;13104;51.030;4.686;2022-08-30T08:26:14;12.77;;;6.93;;
25123;SDS011;13104;51.030;4.686;2022-08-30T08:28:40;12.73;;;6.97;;
25123;SDS011;13104;51.030;4.686;2022-08-30T08:31:20;10.65;;;6.13;;
25123;SDS011;13104;51.030;4.686;2022-08-30T08:33:46;17.75;;;7.22;;
25123;SDS011;13104;51.030;4.686;2022-08-30T08:36:13;11.10;;;6.65;;
25123;SDS011;13104;51.030;4.686;2022-08-30T08:38:39;14.40;;;6.50;;
25123;SDS011;13104;51.030;4.686;2022-08-30T08:41:11;11.93;;;6.78;;
25123;SDS011;13104;51.030;4.686;2022-08-30T08:43:41;12.20;;;5.95;;
25123;SDS011;13104;51.030;4.686;2022-08-30T08:48:41;9.30;;;6.00;;
25123;SDS011;13104;51.030;4.686;2022-08-30T08:51:10;12.65;;;5.57;;
25123;SDS011;13104;51.030;4.686;2022-08-30T08:54:14;10.32;;;5.38;;
25123;SDS011;13104;51.030;4.686;2022-08-30T08:56:41;9.83;;;5.50;;
25123;SDS011;13104;51.030;4.686;2022-08-30T08:59:07;13.35;;;4.55;;
25123;SDS011;13104;51.030;4.686;2022-08-30T09:01:34;10.88;;;5.13;;
25123;SDS011;13104;51.030;4.686;2022-08-30T09:04:04;9.25;;;5.13;;
25123;SDS011;13104;51.030;4.686;2022-08-30T09:09:02;9.70;;;4.63;;
25123;SDS011;13104;51.030;4.686;2022-08-30T09:11:30;9.18;;;4.68;;
25123;SDS011;13104;51.030;4.686;2022-08-30T09:13:57;17.35;;;5.15;;
25123;SDS011;13104;51.030;4.686;2022-08-30T09:19:08;14.00;;;4.55;;
25123;SDS011;13104;51.030;4.686;2022-08-30T09:21:35;8.93;;;4.20;;
25123;SDS011;13104;51.030;4.686;2022-08-30T09:24:02;9.30;;;4.10;;
25123;SDS011;13104;51.030;4.686;2022-08-30T09:26:30;9.15;;;4.55;;
25123;SDS011;13104;51.030;4.686;2022-08-30T09:28:56;9.63;;;4.03;;
25123;SDS011;13104;51.030;4.686;2022-08-30T09:31:29;7.35;;;4.10;;
25123;SDS011;13104;51.030;4.686;2022-08-30T09:33:59;8.90;;;3.50;;
25123;SDS011;13104;51.030;4.686;2022-08-30T09:36:38;11.40;;;4.10;;
25123;SDS011;13104;51.030;4.686;2022-08-30T09:39:06;11.20;;;3.88;;
25123;SDS011;13104;51.030;4.686;2022-08-30T09:41:39;8.05;;;3.30;;
25123;SDS011;13104;51.030;4.686;2022-08-30T09:44:08;11.35;;;3.90;;
25123;SDS011;13104;51.030;4.686;2022-08-30T09:46:42;8.90;;;3.85;;
25123;SDS011;13104;51.030;4.686;2022-08-30T09:52:15;9.02;;;3.03;;
25123;SDS011;13104;51.030;4.686;2022-08-30T09:57:29;10.60;;;3.83;;
25123;SDS011;13104;51.030;4.686;2022-08-30T10:02:36;9.35;;;3.15;;
25123;SDS011;13104;51.030;4.686;2022-08-30T10:15:34;6.53;;;3.08;;
25123;SDS011;13104;51.030;4.686;2022-08-30T10:18:19;5.70;;;3.10;;
25123;SDS011;13104;51.030;4.686;2022-08-30T10:23:21;11.00;;;3.13;;
25123;SDS011;13104;51.030;4.686;2022-08-30T10:28:41;7.88;;;2.95;;
25123;SDS011;13104;51.030;4.686;2022-08-30T10:34:03;10.50;;;3.45;;
25123;SDS011;13104;51.030;4.686;2022-08-30T10:36:41;8.15;;;2.85;;
25123;SDS011;13104;51.030;4.686;2022-08-30T10:39:08;6.88;;;3.17;;
25123;SDS011;13104;51.030;4.686;2022-08-30T10:41:40;7.55;;;2.70;;
25123;SDS011;13104;51.030;4.686;2022-08-30T10:49:04;9.10;;;3.22;;
25123;SDS011;13104;51.030;4.686;2022-08-30T10:51:31;6.25;;;2.58;;
25123;SDS011;13104;51.030;4.686;2022-08-30T10:56:47;5.53;;;2.70;;
25123;SDS011;13104;51.030;4.686;2022-08-30T10:59:15;8.00;;;2.90;;
25123;SDS011;13104;51.030;4.686;2022-08-30T11:14:52;11.85;;;3.08;;
25123;SDS011;13104;51.030;4.686;2022-08-30T11:17:21;7.90;;;2.63;;
25123;SDS011;13104;51.030;4.686;2022-08-30T11:19:48;12.70;;;3.25;;
25123;SDS011;13104;51.030;4.686;2022-08-30T11:22:16;7.97;;;2.70;;
25123;SDS011;13104;51.030;4.686;2022-08-30T11:35:42;6.40;;;2.67;;
25123;SDS011;13104;51.030;4.686;2022-08-30T11:41:06;10.88;;;2.80;;
25123;SDS011;13104;51.030;4.686;2022-08-30T11:54:17;10.73;;;2.63;;
25123;SDS011;13104;51.030;4.686;2022-08-30T11:59:33;7.28;;;2.55;;
25123;SDS011;13104;51.030;4.686;2022-08-30T12:02:04;10.43;;;2.15;;
25123;SDS011;13104;51.030;4.686;2022-08-30T12:07:02;5.13;;;2.30;;
25123;SDS011;13104;51.030;4.686;2022-08-30T12:14:42;8.65;;;2.25;;
25123;SDS011;13104;51.030;4.686;2022-08-30T12:19:56;4.03;;;2.28;;
25123;SDS011;13104;51.030;4.686;2022-08-30T12:22:24;6.30;;;2.75;;
25123;SDS011;13104;51.030;4.686;2022-08-30T12:24:51;10.13;;;2.40;;
25123;SDS011;13104;51.030;4.686;2022-08-30T12:29:51;4.93;;;2.30;;
25123;SDS011;13104;51.030;4.686;2022-08-30T12:32:17;7.72;;;2.60;;
25123;SDS011;13104;51.030;4.686;2022-08-30T12:34:50;8.77;;;2.33;;
25123;SDS011;13104;51.030;4.686;2022-08-30T12:37:24;9.13;;;2.17;;
25123;SDS011;13104;51.030;4.686;2022-08-30T12:42:28;9.82;;;2.08;;
25123;SDS011;13104;51.030;4.686;2022-08-30T12:44:55;9.40;;;2.60;;
25123;SDS011;13104;51.030;4.686;2022-08-30T12:47:40;11.32;;;2.58;;
25123;SDS011;13104;51.030;4.686;2022-08-30T12:50:08;8.57;;;2.85;;
25123;SDS011;13104;51.030;4.686;2022-08-30T12:52:36;4.85;;;1.98;;
25123;SDS011;13104;51.030;4.686;2022-08-30T13:00:33;9.23;;;2.38;;
25123;SDS011;13104;51.030;4.686;2022-08-30T13:05:45;5.35;;;2.03;;
25123;SDS011;13104;51.030;4.686;2022-08-30T13:08:16;5.25;;;2.10;;
25123;SDS011;13104;51.030;4.686;2022-08-30T13:10:56;8.32;;;2.08;;
25123;SDS011;13104;51.030;4.686;2022-08-30T13:13:30;4.95;;;2.10;;
25123;SDS011;13104;51.030;4.686;2022-08-30T13:16:05;8.45;;;2.17;;
25123;SDS011;13104;51.030;4.686;2022-08-30T13:18:31;6.15;;;2.00;;
25123;SDS011;13104;51.030;4.686;2022-08-30T13:21:10;8.13;;;1.90;;
25123;SDS011;13104;51.030;4.686;2022-08-30T13:23:36;5.30;;;1.65;;
25123;SDS011;13104;51.030;4.686;2022-08-30T13:26:05;6.28;;;1.92;;
25123;SDS011;13104;51.030;4.686;2022-08-30T13:28:40;3.88;;;2.00;;
25123;SDS011;13104;51.030;4.686;2022-08-30T13:31:07;9.25;;;2.45;;
25123;SDS011;13104;51.030;4.686;2022-08-30T13:33:33;8.73;;;2.30;;
25123;SDS011;13104;51.030;4.686;2022-08-30T13:36:01;7.90;;;2.30;;
25123;SDS011;13104;51.030;4.686;2022-08-30T13:38:27;9.95;;;2.38;;
25123;SDS011;13104;51.030;4.686;2022-08-30T13:40:53;5.65;;;1.90;;
25123;SDS011;13104;51.030;4.686;2022-08-30T13:43:19;5.82;;;2.05;;
25123;SDS011;13104;51.030;4.686;2022-08-30T13:45:46;17.55;;;4.63;;
25123;SDS011;13104;51.030;4.686;2022-08-30T13:48:12;10.95;;;3.85;;
25123;SDS011;13104;51.030;4.686;2022-08-30T13:50:39;8.63;;;1.85;;
25123;SDS011;13104;51.030;4.686;2022-08-30T13:53:05;10.07;;;1.90;;
25123;SDS011;13104;51.030;4.686;2022-08-30T13:55:34;8.23;;;2.20;;
25123;SDS011;13104;51.030;4.686;2022-08-30T13:58:01;10.52;;;3.08;;
25123;SDS011;13104;51.030;4.686;2022-08-30T14:00:27;7.47;;;2.20;;
25123;SDS011;13104;51.030;4.686;2022-08-30T14:02:53;16.38;;;4.30;;
25123;SDS011;13104;51.030;4.686;2022-08-30T14:05:28;18.08;;;4.53;;
25123;SDS011;13104;51.030;4.686;2022-08-30T14:07:58;12.73;;;3.83;;
25123;SDS011;13104;51.030;4.686;2022-08-30T14:10:25;16.42;;;5.07;;
25123;SDS011;13104;51.030;4.686;2022-08-30T14:12:58;29.08;;;8.40;;
25123;SDS011;13104;51.030;4.686;2022-08-30T14:15:25;9.68;;;4.00;;
25123;SDS011;13104;51.030;4.686;2022-08-30T14:17:51;6.53;;;1.90;;
25123;SDS011;13104;51.030;4.686;2022-08-30T14:20:18;8.50;;;2.13;;
25123;SDS011;13104;51.030;4.686;2022-08-30T14:22:44;4.93;;;1.88;;
25123;SDS011;13104;51.030;4.686;2022-08-30T14:25:10;6.25;;;1.90;;
25123;SDS011;13104;51.030;4.686;2022-08-30T14:27:36;8.55;;;2.20;;
25123;SDS011;13104;51.030;4.686;2022-08-30T14:30:03;9.27;;;2.30;;
25123;SDS011;13104;51.030;4.686;2022-08-30T14:32:29;4.03;;;1.67;;
25123;SDS011;13104;51.030;4.686;2022-08-30T14:34:55;8.25;;;1.83;;
25123;SDS011;13104;51.030;4.686;2022-08-30T14:37:22;7.88;;;1.85;;
25123;SDS011;13104;51.030;4.686;2022-08-30T14:39:48;10.43;;;2.10;;
25123;SDS011;13104;51.030;4.686;2022-08-30T14:42:14;7.15;;;1.90;;
25123;SDS011;13104;51.030;4.686;2022-08-30T14:44:40;5.78;;;1.80;;
25123;SDS011;13104;51.030;4.686;2022-08-30T14:47:06;6.00;;;1.80;;
25123;SDS011;13104;51.030;4.686;2022-08-30T14:49:33;5.88;;;1.50;;
25123;SDS011;13104;51.030;4.686;2022-08-30T14:51:59;5.88;;;1.70;;
25123;SDS011;13104;51.030;4.686;2022-08-30T14:54:27;6.07;;;1.70;;
25123;SDS011;13104;51.030;4.686;2022-08-30T14:56:53;8.95;;;1.83;;
25123;SDS011;13104;51.030;4.686;2022-08-30T14:59:20;5.72;;;1.90;;
25123;SDS011;13104;51.030;4.686;2022-08-30T15:01:46;7.15;;;1.55;;
25123;SDS011;13104;51.030;4.686;2022-08-30T15:04:13;13.75;;;2.47;;
25123;SDS011;13104;51.030;4.686;2022-08-30T15:06:40;7.28;;;1.48;;
25123;SDS011;13104;51.030;4.686;2022-08-30T15:09:08;8.27;;;1.60;;
25123;SDS011;13104;51.030;4.686;2022-08-30T15:11:38;4.90;;;1.75;;
25123;SDS011;13104;51.030;4.686;2022-08-30T15:14:04;3.30;;;1.70;;
25123;SDS011;13104;51.030;4.686;2022-08-30T15:16:33;7.13;;;2.00;;
25123;SDS011;13104;51.030;4.686;2022-08-30T15:19:00;9.93;;;1.63;;
25123;SDS011;13104;51.030;4.686;2022-08-30T15:21:27;4.43;;;1.70;;
25123;SDS011;13104;51.030;4.686;2022-08-30T15:23:54;6.43;;;1.88;;
25123;SDS011;13104;51.030;4.686;2022-08-30T15:26:21;8.30;;;1.75;;
25123;SDS011;13104;51.030;4.686;2022-08-30T15:28:48;7.57;;;2.15;;
25123;SDS011;13104;51.030;4.686;2022-08-30T15:31:14;4.70;;;1.60;;
25123;SDS011;13104;51.030;4.686;2022-08-30T15:33:40;3.80;;;1.60;;
25123;SDS011;13104;51.030;4.686;2022-08-30T15:36:06;8.45;;;1.98;;
25123;SDS011;13104;51.030;4.686;2022-08-30T15:38:33;6.57;;;1.60;;
25123;SDS011;13104;51.030;4.686;2022-08-30T15:41:01;7.68;;;1.50;;
25123;SDS011;13104;51.030;4.686;2022-08-30T15:43:28;7.40;;;1.60;;
25123;SDS011;13104;51.030;4.686;2022-08-30T15:45:54;10.75;;;1.90;;
25123;SDS011;13104;51.030;4.686;2022-08-30T15:48:21;6.88;;;1.80;;
25123;SDS011;13104;51.030;4.686;2022-08-30T15:50:54;4.00;;;1.40;;
25123;SDS011;13104;51.030;4.686;2022-08-30T15:53:21;8.37;;;1.97;;
25123;SDS011;13104;51.030;4.686;2022-08-30T15:55:47;10.32;;;1.77;;
25123;SDS011;13104;51.030;4.686;2022-08-30T15:58:13;4.35;;;1.58;;
25123;SDS011;13104;51.030;4.686;2022-08-30T16:00:39;10.45;;;2.00;;
25123;SDS011;13104;51.030;4.686;2022-08-30T16:03:05;4.20;;;1.80;;
25123;SDS011;13104;51.030;4.686;2022-08-30T16:05:31;10.45;;;1.83;;
25123;SDS011;13104;51.030;4.686;2022-08-30T16:07:57;8.60;;;2.03;;
25123;SDS011;13104;51.030;4.686;2022-08-30T16:10:23;4.65;;;1.52;;
25123;SDS011;13104;51.030;4.686;2022-08-30T16:12:49;6.47;;;1.50;;
25123;SDS011;13104;51.030;4.686;2022-08-30T16:15:15;6.68;;;1.70;;
25123;SDS011;13104;51.030;4.686;2022-08-30T16:17:43;6.20;;;1.67;;
25123;SDS011;13104;51.030;4.686;2022-08-30T16:20:09;7.70;;;1.80;;
25123;SDS011;13104;51.030;4.686;2022-08-30T16:22:35;7.93;;;1.80;;
25123;SDS011;13104;51.030;4.686;2022-08-30T16:25:02;9.98;;;2.05;;
25123;SDS011;13104;51.030;4.686;2022-08-30T16:27:29;10.32;;;1.88;;
25123;SDS011;13104;51.030;4.686;2022-08-30T16:29:55;4.57;;;1.67;;